createdAt,value
2022-10-05T00:01:05.165Z,17
2022-10-05T00:04:05.107Z,16.91
2022-10-05T00:07:05.075Z,16.86
2022-10-05T00:09:05.108Z,16.87
2022-10-05T00:12:05.064Z,16.83
2022-10-05T00:15:05.078Z,16.85
2022-10-05T00:17:05.099Z,16.74
2022-10-05T00:19:05.085Z,16.71
2022-10-05T00:22:05.052Z,16.78
2022-10-05T00:24:05.103Z,16.73
2022-10-05T00:27:05.084Z,16.74
2022-10-05T00:30:05.047Z,16.82
2022-10-05T00:32:05.131Z,16.86
2022-10-05T00:35:05.072Z,16.86
2022-10-05T00:38:05.065Z,16.83
2022-10-05T00:40:05.085Z,16.85
2022-10-05T00:43:05.102Z,16.87
2022-10-05T00:46:05.132Z,16.77
2022-10-05T00:48:05.063Z,16.76
2022-10-05T00:51:05.117Z,16.73
2022-10-05T00:54:05.068Z,16.71
2022-10-05T00:57:05.073Z,16.7
2022-10-05T00:59:05.137Z,16.64
2022-10-05T01:02:05.206Z,16.61
2022-10-05T01:04:05.082Z,16.59
2022-10-05T01:07:05.068Z,16.61
2022-10-05T01:09:05.095Z,16.61
2022-10-05T01:11:15.374Z,16.6
2022-10-05T01:14:15.405Z,16.54
2022-10-05T01:17:05.051Z,16.53
2022-10-05T01:19:05.056Z,16.45
2022-10-05T01:21:05.166Z,16.4
2022-10-05T01:24:05.063Z,16.33
2022-10-05T01:27:05.060Z,16.21
2022-10-05T01:29:05.077Z,16.27
2022-10-05T01:32:05.083Z,16.31
2022-10-05T01:34:09.198Z,16.27
2022-10-05T01:37:05.103Z,16.2
2022-10-05T01:40:05.083Z,16.12
2022-10-05T01:42:05.129Z,16.12
2022-10-05T01:45:05.168Z,16.07
2022-10-05T01:48:05.119Z,16.04
2022-10-05T01:51:05.057Z,16.09
2022-10-05T01:53:05.141Z,16.08
2022-10-05T01:56:05.120Z,16.12
2022-10-05T01:59:05.061Z,16.19
2022-10-05T02:01:05.134Z,16.2
2022-10-05T02:05:05.086Z,16.2
2022-10-05T02:08:05.168Z,16.21
2022-10-05T02:11:05.084Z,16.14
2022-10-05T02:13:05.108Z,16.17
2022-10-05T02:16:05.192Z,16.16
2022-10-05T02:19:05.116Z,16.15
2022-10-05T02:21:05.090Z,16.15
2022-10-05T02:23:05.098Z,16.14
2022-10-05T02:25:05.122Z,16.14
2022-10-05T02:28:05.155Z,16.12
2022-10-05T02:31:05.143Z,16.07
2022-10-05T02:33:05.098Z,16.1
2022-10-05T02:36:05.109Z,16.1
2022-10-05T02:39:05.108Z,16.08
2022-10-05T02:41:05.099Z,16.08
2022-10-05T02:44:05.092Z,16.01
2022-10-05T02:46:05.166Z,15.98
2022-10-05T02:48:05.113Z,16.02
2022-10-05T02:51:05.096Z,16.01
2022-10-05T02:54:05.058Z,16.02
2022-10-05T02:56:05.096Z,15.98
2022-10-05T02:59:05.070Z,15.95
2022-10-05T03:01:05.160Z,15.98
2022-10-05T03:04:05.112Z,15.93
2022-10-05T03:07:05.126Z,15.89
2022-10-05T03:09:05.098Z,15.89
2022-10-05T03:12:05.116Z,15.93
2022-10-05T03:15:05.108Z,15.93
2022-10-05T03:18:05.082Z,15.9
2022-10-05T03:20:05.116Z,15.9
2022-10-05T03:22:05.146Z,15.88
2022-10-05T03:25:05.120Z,15.8
2022-10-05T03:28:05.171Z,15.82
2022-10-05T03:31:05.157Z,15.82
2022-10-05T03:33:05.123Z,15.81
2022-10-05T03:36:05.129Z,15.81
2022-10-05T03:39:05.080Z,15.8
2022-10-05T03:41:05.142Z,15.77
2022-10-05T03:44:08.283Z,15.74
2022-10-05T03:47:05.128Z,15.73
2022-10-05T03:49:05.224Z,15.73
2022-10-05T03:52:05.135Z,15.72
2022-10-05T03:55:05.103Z,15.69
2022-10-05T03:57:05.125Z,15.65
2022-10-05T04:00:05.095Z,15.64
2022-10-05T04:03:05.098Z,15.67
2022-10-05T04:05:05.128Z,15.66
2022-10-05T04:08:05.122Z,15.66
2022-10-05T04:11:05.186Z,15.68
2022-10-05T04:13:05.224Z,15.69
2022-10-05T04:16:05.140Z,15.67
2022-10-05T04:19:05.098Z,15.67
2022-10-05T04:21:05.148Z,15.68
2022-10-05T04:24:05.094Z,15.65
2022-10-05T04:27:05.122Z,15.57
2022-10-05T04:29:05.136Z,15.54
2022-10-05T04:32:05.107Z,15.47
2022-10-05T04:35:05.132Z,15.45
2022-10-05T04:38:05.077Z,15.44
2022-10-05T04:40:05.073Z,15.45
2022-10-05T04:42:05.093Z,15.44
2022-10-05T04:45:05.083Z,15.46
2022-10-05T04:47:05.167Z,15.44
2022-10-05T04:50:05.079Z,15.42
2022-10-05T04:52:05.101Z,15.41
2022-10-05T04:54:05.079Z,15.42
2022-10-05T04:57:05.132Z,15.43
2022-10-05T05:00:05.102Z,15.28
2022-10-05T05:03:05.141Z,15.28
2022-10-05T05:06:16.704Z,15.31
2022-10-05T05:09:05.098Z,15.3
2022-10-05T05:12:05.074Z,15.27
2022-10-05T05:14:05.152Z,15.22
2022-10-05T05:17:06.748Z,15.19
2022-10-05T05:19:05.092Z,15.21
2022-10-05T05:22:05.124Z,15.18
2022-10-05T05:25:05.109Z,15.11
2022-10-05T05:27:05.099Z,15.1
2022-10-05T05:30:05.218Z,15.07
2022-10-05T05:33:05.108Z,15.1
2022-10-05T05:35:05.156Z,15.13
2022-10-05T05:38:05.115Z,15.12
2022-10-05T05:40:05.148Z,15.16
2022-10-05T05:42:05.340Z,15.11
2022-10-05T05:45:05.201Z,15.11
2022-10-05T05:48:05.089Z,15.09
2022-10-05T05:50:07.201Z,15.06
2022-10-05T05:53:05.143Z,15.05
2022-10-05T05:56:05.085Z,15.05
2022-10-05T05:58:05.138Z,15.07
2022-10-05T06:01:05.144Z,15
2022-10-05T06:04:06.111Z,15.02
2022-10-05T06:06:05.130Z,15.01
2022-10-05T06:08:05.138Z,15.03
2022-10-05T06:10:05.267Z,15.08
2022-10-05T06:13:05.124Z,15.05
2022-10-05T06:15:05.136Z,15.05
2022-10-05T06:19:05.086Z,15.07
2022-10-05T06:21:05.135Z,15.07
2022-10-05T06:24:05.100Z,15.08
2022-10-05T06:26:09.822Z,15.07
2022-10-05T06:29:05.089Z,15.14
2022-10-05T06:31:05.128Z,15.16
2022-10-05T06:34:05.125Z,15.17
2022-10-05T06:37:05.127Z,15.18
2022-10-05T06:39:05.208Z,15.16
2022-10-05T06:42:05.126Z,15.16
2022-10-05T06:45:05.116Z,15.17
2022-10-05T06:47:05.102Z,15.14
2022-10-05T06:50:05.116Z,15.12
2022-10-05T06:53:05.141Z,15.13
2022-10-05T06:55:05.142Z,15.14
2022-10-05T06:58:05.157Z,15.09
2022-10-05T07:01:05.170Z,15.12
2022-10-05T07:03:05.140Z,15.16
2022-10-05T07:06:05.140Z,15.2
2022-10-05T07:09:05.096Z,15.23
2022-10-05T07:11:05.144Z,15.23
2022-10-05T07:13:05.148Z,15.27
2022-10-05T07:16:05.177Z,15.26
2022-10-05T07:19:05.101Z,15.34
2022-10-05T07:21:05.121Z,15.33
2022-10-05T07:23:05.133Z,15.35
2022-10-05T07:26:05.147Z,15.41
2022-10-05T07:28:05.165Z,15.47
2022-10-05T07:31:05.218Z,15.48
2022-10-05T07:34:05.190Z,15.41
2022-10-05T07:37:05.129Z,15.42
2022-10-05T07:39:05.100Z,15.45
2022-10-05T07:41:05.124Z,15.49
2022-10-05T07:44:07.776Z,15.5
2022-10-05T07:47:05.159Z,15.46
2022-10-05T07:50:05.147Z,15.47
2022-10-05T07:52:05.159Z,15.52
2022-10-05T07:55:05.148Z,15.55
2022-10-05T07:58:05.184Z,15.57
2022-10-05T08:00:05.155Z,15.58
2022-10-05T08:03:05.247Z,15.57
2022-10-05T08:06:05.217Z,15.56
2022-10-05T08:08:05.189Z,15.59
2022-10-05T08:11:05.160Z,15.59
2022-10-05T08:14:05.119Z,15.66
2022-10-05T08:16:05.242Z,15.66
2022-10-05T08:19:05.121Z,15.68
2022-10-05T08:22:05.140Z,15.77
2022-10-05T08:24:05.140Z,15.8
2022-10-05T08:27:05.154Z,15.85
2022-10-05T08:29:05.138Z,15.89
2022-10-05T08:31:05.521Z,15.9
2022-10-05T08:34:05.110Z,15.93
2022-10-05T08:36:05.140Z,15.98
2022-10-05T08:38:05.151Z,16.03
2022-10-05T08:42:05.187Z,16.1
2022-10-05T08:44:05.147Z,16.11
2022-10-05T08:47:05.185Z,16.15
2022-10-05T08:49:05.150Z,16.15
2022-10-05T08:52:05.160Z,16.18
2022-10-05T08:54:05.139Z,16.2
2022-10-05T08:57:05.207Z,16.26
2022-10-05T09:00:05.131Z,16.31
2022-10-05T09:03:05.471Z,16.37
2022-10-05T09:06:05.169Z,16.42
2022-10-05T09:08:05.173Z,16.45
2022-10-05T09:11:05.188Z,16.5
2022-10-05T09:14:05.162Z,16.54
2022-10-05T09:17:05.180Z,16.58
2022-10-05T09:20:05.160Z,16.59
2022-10-05T09:23:05.171Z,16.64
2022-10-05T09:25:05.154Z,16.68
2022-10-05T09:28:05.204Z,16.73
2022-10-05T09:31:05.204Z,16.77
2022-10-05T09:33:05.229Z,16.79
2022-10-05T09:36:05.210Z,16.83
2022-10-05T09:39:05.155Z,16.86
2022-10-05T09:41:05.158Z,16.89
2022-10-05T09:43:05.169Z,16.9
2022-10-05T09:46:05.164Z,16.95
2022-10-05T09:49:05.161Z,17.04
2022-10-05T09:52:05.139Z,17.08
2022-10-05T09:55:05.176Z,17.15
2022-10-05T09:57:05.156Z,17.19
2022-10-05T09:59:05.218Z,17.23
2022-10-05T10:02:05.272Z,17.41
2022-10-05T10:05:05.167Z,17.61
2022-10-05T10:08:05.153Z,17.81
2022-10-05T10:10:05.141Z,17.92
2022-10-05T10:12:05.158Z,17.98
2022-10-05T10:14:05.172Z,18.04
2022-10-05T10:17:05.126Z,18.14
2022-10-05T10:20:05.198Z,18.31
2022-10-05T10:23:05.374Z,18.49
2022-10-05T10:26:05.877Z,19.02
2022-10-05T10:29:05.210Z,21.27
2022-10-05T10:31:05.405Z,22.94
2022-10-05T10:34:05.193Z,25.23
2022-10-05T10:37:05.150Z,26.99
2022-10-05T10:40:05.176Z,28.22
2022-10-05T10:43:05.158Z,29.32
2022-10-05T10:45:05.194Z,29.42
2022-10-05T10:47:05.176Z,28.83
2022-10-05T10:50:05.266Z,29.19
2022-10-05T10:53:05.203Z,28.58
2022-10-05T10:56:05.182Z,26.14
2022-10-05T10:58:05.211Z,24.97
2022-10-05T11:01:05.206Z,23.81
2022-10-05T11:04:05.162Z,23.07
2022-10-05T11:07:05.168Z,22.57
2022-10-05T11:10:06.214Z,22.24
2022-10-05T11:12:05.189Z,22.09
2022-10-05T11:15:05.201Z,21.94
2022-10-05T11:18:05.180Z,21.92
2022-10-05T11:20:05.478Z,21.86
2022-10-05T11:23:05.173Z,21.8
2022-10-05T11:25:05.206Z,21.76
2022-10-05T11:28:05.195Z,21.72
2022-10-05T11:31:05.220Z,21.71
2022-10-05T11:33:05.184Z,21.72
2022-10-05T11:35:05.188Z,21.78
2022-10-05T11:38:05.236Z,21.89
2022-10-05T11:41:05.237Z,21.88
2022-10-05T11:44:06.279Z,21.86
2022-10-05T11:46:05.251Z,21.86
2022-10-05T11:49:05.172Z,21.91
2022-10-05T11:52:05.203Z,22
2022-10-05T11:55:10.684Z,22.1
2022-10-05T11:57:05.196Z,22.18
2022-10-05T11:59:05.169Z,22.24
2022-10-05T12:01:05.207Z,22.32
2022-10-05T12:05:05.156Z,22.46
2022-10-05T12:07:05.204Z,22.5
2022-10-05T12:10:05.270Z,22.63
2022-10-05T12:12:05.203Z,22.69
2022-10-05T12:15:05.208Z,22.79
2022-10-05T12:17:05.208Z,22.91
2022-10-05T12:20:05.242Z,23.06
2022-10-05T12:23:05.199Z,23.17
2022-10-05T12:26:05.253Z,23.44
2022-10-05T12:29:05.166Z,23.81
2022-10-05T12:31:05.197Z,24.03
2022-10-05T12:34:05.205Z,24.14
2022-10-05T12:37:05.575Z,24.18
2022-10-05T12:40:05.208Z,24.32
2022-10-05T12:42:05.231Z,24.35
2022-10-05T12:45:05.205Z,24.26
2022-10-05T12:47:05.224Z,24.28
2022-10-05T12:50:05.215Z,24.25
2022-10-05T12:53:05.213Z,24.22
2022-10-05T12:56:05.191Z,24.27
2022-10-05T12:58:05.233Z,24.28
2022-10-05T13:01:05.222Z,24.36
2022-10-05T13:03:05.226Z,24.43
2022-10-05T13:06:05.242Z,24.38
2022-10-05T13:09:05.179Z,24.38
2022-10-05T13:11:05.214Z,24.36
2022-10-05T13:13:05.302Z,24.33
2022-10-05T13:16:05.268Z,24.38
2022-10-05T13:21:05.249Z,24.24
2022-10-05T13:24:05.227Z,24.47
2022-10-05T13:26:05.239Z,24.57
2022-10-05T13:29:05.236Z,24.58
2022-10-05T13:32:05.204Z,24.6
2022-10-05T13:34:05.328Z,24.67
2022-10-05T13:37:05.213Z,24.8
2022-10-05T13:40:05.200Z,24.73
2022-10-05T13:42:05.231Z,24.77
2022-10-05T13:45:05.239Z,24.81
2022-10-05T13:48:05.186Z,24.86
2022-10-05T13:50:05.412Z,24.83
2022-10-05T13:53:05.233Z,24.81
2022-10-05T13:56:05.186Z,24.8
2022-10-05T13:58:05.279Z,24.88
2022-10-05T14:01:05.208Z,24.96
2022-10-05T14:04:05.230Z,25.01
2022-10-05T14:06:05.644Z,25.05
2022-10-05T14:09:05.240Z,24.97
2022-10-05T14:12:05.208Z,25.06
2022-10-05T14:14:05.248Z,25.03
2022-10-05T14:17:05.196Z,24.99
2022-10-05T14:19:05.235Z,25.05
2022-10-05T14:22:05.198Z,25.06
2022-10-05T14:24:08.405Z,25.04
2022-10-05T14:26:05.235Z,25.12
2022-10-05T14:29:05.230Z,25.17
2022-10-05T14:31:05.210Z,25.15
2022-10-05T14:34:05.747Z,25.27
2022-10-05T14:36:05.214Z,25.33
2022-10-05T14:38:06.422Z,25.39
2022-10-05T14:41:05.210Z,25.39
2022-10-05T14:44:05.246Z,25.44
2022-10-05T14:47:05.227Z,25.37
2022-10-05T14:50:05.268Z,25.3
2022-10-05T14:53:05.233Z,25.24
2022-10-05T14:56:05.213Z,25.27
2022-10-05T14:59:05.231Z,25.21
2022-10-05T15:02:05.258Z,25.24
2022-10-05T15:05:05.215Z,25.31
2022-10-05T15:07:05.243Z,25.37
2022-10-05T15:09:12.479Z,25.43
2022-10-05T15:12:05.256Z,25.45
2022-10-05T15:15:05.225Z,25.54
2022-10-05T15:17:05.308Z,25.64
2022-10-05T15:19:05.267Z,25.77
2022-10-05T15:21:05.250Z,25.98
2022-10-05T15:23:05.758Z,26.08
2022-10-05T15:26:05.253Z,26.18
2022-10-05T15:28:05.312Z,26.24
2022-10-05T15:31:05.349Z,26.01
2022-10-05T15:34:05.224Z,26.04
2022-10-05T15:37:05.263Z,26.08
2022-10-05T15:39:05.273Z,26.15
2022-10-05T15:42:05.285Z,26.31
2022-10-05T15:45:05.278Z,26.49
2022-10-05T15:48:05.274Z,26.62
2022-10-05T15:50:05.292Z,26.58
2022-10-05T15:53:05.264Z,26.34
2022-10-05T15:56:05.241Z,26.33
2022-10-05T15:58:05.254Z,26.38
2022-10-05T16:01:05.348Z,26.38
2022-10-05T16:03:05.287Z,26.34
2022-10-05T16:06:05.259Z,26.31
2022-10-05T16:09:05.226Z,26.31
2022-10-05T16:11:05.349Z,26.29
2022-10-05T16:14:05.257Z,26.25
2022-10-05T16:16:05.342Z,26.18
2022-10-05T16:19:05.246Z,26
2022-10-05T16:21:05.321Z,25.87
2022-10-05T16:24:05.227Z,25.63
2022-10-05T16:26:05.263Z,25.48
2022-10-05T16:29:05.257Z,25.3
2022-10-05T16:31:05.305Z,25.18
2022-10-05T16:33:06.163Z,25.08
2022-10-05T16:36:05.301Z,24.92
2022-10-05T16:39:05.297Z,24.88
2022-10-05T16:42:05.297Z,24.72
2022-10-05T16:45:05.296Z,24.61
2022-10-05T16:48:05.247Z,24.42
2022-10-05T16:50:05.288Z,24.36
2022-10-05T16:53:05.257Z,24.25
2022-10-05T16:56:05.284Z,24.14
2022-10-05T16:58:05.287Z,24.04
2022-10-05T17:01:05.352Z,23.92
2022-10-05T17:03:05.290Z,23.85
2022-10-05T17:06:05.279Z,23.77
2022-10-05T17:09:05.273Z,23.69
2022-10-05T17:11:05.273Z,23.64
2022-10-05T17:14:05.242Z,23.59
2022-10-05T17:16:05.324Z,23.52
2022-10-05T17:19:05.298Z,23.35
2022-10-05T17:21:05.293Z,23.21
2022-10-05T17:23:05.307Z,23.14
2022-10-05T17:26:05.276Z,23.04
2022-10-05T17:28:05.465Z,23
2022-10-05T17:31:05.357Z,22.83
2022-10-05T17:34:05.243Z,22.79
2022-10-05T17:36:05.288Z,22.82
2022-10-05T17:38:05.286Z,22.73
2022-10-05T17:40:05.328Z,22.68
2022-10-05T17:43:05.295Z,22.59
2022-10-05T17:46:05.321Z,22.58
2022-10-05T17:48:05.338Z,22.58
2022-10-05T17:51:05.298Z,22.57
2022-10-05T17:54:05.303Z,22.53
2022-10-05T17:57:05.275Z,22.52
2022-10-05T18:00:05.281Z,22.5
2022-10-05T18:03:05.332Z,22.45
2022-10-05T18:06:05.275Z,22.46
2022-10-05T18:08:05.280Z,22.46
2022-10-05T18:10:05.319Z,22.46
2022-10-05T18:13:05.273Z,22.5
2022-10-05T18:15:05.265Z,22.54
2022-10-05T18:18:05.271Z,22.56
2022-10-05T18:20:05.299Z,22.58
2022-10-05T18:22:06.357Z,22.6
2022-10-05T18:25:05.851Z,22.62
2022-10-05T18:28:05.413Z,22.64
2022-10-05T18:31:05.337Z,22.64
2022-10-05T18:33:05.309Z,22.62
2022-10-05T18:35:05.306Z,22.6
2022-10-05T18:38:05.291Z,22.6
2022-10-05T18:41:05.330Z,22.59
2022-10-05T18:44:05.478Z,22.55
2022-10-05T18:47:05.278Z,22.52
2022-10-05T18:49:05.322Z,22.5
2022-10-05T18:52:05.314Z,22.49
2022-10-05T18:55:05.338Z,22.49
2022-10-05T18:58:05.322Z,22.47
2022-10-05T19:00:05.347Z,22.45
2022-10-05T19:03:05.299Z,22.43
2022-10-05T19:05:05.388Z,22.44
2022-10-05T19:08:05.307Z,22.39
2022-10-05T19:10:05.360Z,22.37
2022-10-05T19:13:05.332Z,22.34
2022-10-05T19:16:05.355Z,22.34
2022-10-05T19:19:05.287Z,22.34
2022-10-05T19:22:05.321Z,22.35
2022-10-05T19:24:05.317Z,22.36
2022-10-05T19:27:05.275Z,22.35
2022-10-05T19:30:05.325Z,22.36
2022-10-05T19:33:05.334Z,22.35
2022-10-05T19:36:05.320Z,22.34
2022-10-05T19:38:05.366Z,22.34
2022-10-05T19:41:05.300Z,22.31
2022-10-05T19:44:05.294Z,22.31
2022-10-05T19:46:05.391Z,22.32
2022-10-05T19:49:05.326Z,22.32
2022-10-05T19:51:05.335Z,22.29
2022-10-05T19:53:05.341Z,22.28
2022-10-05T19:56:05.314Z,22.29
2022-10-05T19:58:05.355Z,22.27
2022-10-05T20:01:05.547Z,22.23
2022-10-05T20:04:05.331Z,22.22
2022-10-05T20:06:05.341Z,22.22
2022-10-05T20:09:05.309Z,22.22
2022-10-05T20:12:05.309Z,22.19
2022-10-05T20:14:05.340Z,22.19
2022-10-05T20:17:05.326Z,22.16
2022-10-05T20:20:05.366Z,22.12
2022-10-05T20:23:05.327Z,22.04
2022-10-05T20:25:12.511Z,22
2022-10-05T20:27:05.522Z,22
2022-10-05T20:29:05.355Z,22.01
2022-10-05T20:31:05.385Z,22
2022-10-05T20:34:05.339Z,22
2022-10-05T20:37:05.335Z,21.97
2022-10-05T20:40:05.304Z,21.98
2022-10-05T20:42:05.352Z,21.95
2022-10-05T20:45:05.356Z,21.92
2022-10-05T20:48:05.315Z,21.94
2022-10-05T20:50:05.364Z,21.91
2022-10-05T20:53:08.424Z,21.91
2022-10-05T20:56:05.322Z,21.89
2022-10-05T20:58:05.337Z,21.85
2022-10-05T21:00:05.422Z,21.85
2022-10-05T21:03:05.330Z,21.87
2022-10-05T21:05:05.342Z,21.89
2022-10-05T21:07:15.596Z,21.92
2022-10-05T21:09:15.611Z,21.91
2022-10-05T21:12:05.334Z,21.89
2022-10-05T21:15:05.287Z,21.88
2022-10-05T21:17:05.345Z,21.91
2022-10-05T21:19:05.323Z,21.91
2022-10-05T21:22:05.333Z,21.91
2022-10-05T21:24:05.355Z,21.88
2022-10-05T21:26:05.343Z,21.9
2022-10-05T21:29:09.021Z,21.93
2022-10-05T21:31:05.372Z,21.95
2022-10-05T21:34:05.314Z,21.93
2022-10-05T21:36:05.330Z,21.93
2022-10-05T21:39:05.326Z,21.87
2022-10-05T21:41:05.368Z,21.9
2022-10-05T21:43:05.363Z,21.91
2022-10-05T21:46:05.413Z,21.9
2022-10-05T21:49:05.327Z,21.87
2022-10-05T21:51:05.350Z,21.85
2022-10-05T21:53:05.365Z,21.83
2022-10-05T21:55:05.393Z,21.83
2022-10-05T21:58:05.322Z,21.79
2022-10-05T22:00:05.372Z,21.75
2022-10-05T22:02:05.382Z,21.73
2022-10-05T22:04:05.369Z,21.68
2022-10-05T22:07:05.365Z,21.62
2022-10-05T22:10:05.412Z,21.5
2022-10-05T22:12:05.438Z,21.47
2022-10-05T22:15:05.363Z,21.48
2022-10-05T22:18:05.326Z,21.54
2022-10-05T22:22:08.651Z,21.56
2022-10-05T22:24:05.397Z,21.54
2022-10-05T22:27:05.348Z,21.52
2022-10-05T22:30:05.374Z,21.45
2022-10-05T22:33:05.368Z,21.43
2022-10-05T22:36:05.378Z,21.44
2022-10-05T22:38:15.637Z,21.44
2022-10-05T22:40:15.666Z,21.43
2022-10-05T22:43:05.340Z,21.45
2022-10-05T22:45:05.353Z,21.49
2022-10-05T22:48:05.337Z,21.53
2022-10-05T22:50:05.376Z,21.53
2022-10-05T22:53:05.344Z,21.55
2022-10-05T22:56:05.367Z,21.53
2022-10-05T22:58:05.407Z,21.52
2022-10-05T23:01:05.405Z,21.48
2022-10-05T23:03:05.373Z,21.48
2022-10-05T23:06:05.369Z,21.46
2022-10-05T23:09:05.335Z,21.41
2022-10-05T23:11:05.408Z,21.37
2022-10-05T23:14:05.381Z,21.33
2022-10-05T23:16:05.415Z,21.33
2022-10-05T23:18:05.356Z,21.36
2022-10-05T23:20:05.357Z,21.37
2022-10-05T23:22:05.375Z,21.34
2022-10-05T23:25:05.350Z,21.35
2022-10-05T23:28:05.393Z,21.37
2022-10-05T23:30:05.379Z,21.37
2022-10-05T23:33:05.373Z,21.35
2022-10-05T23:35:05.370Z,21.34
2022-10-05T23:38:05.352Z,21.3
2022-10-05T23:40:05.352Z,21.32
2022-10-05T23:42:05.880Z,21.31
2022-10-05T23:45:05.341Z,21.29
2022-10-05T23:47:05.351Z,21.28
2022-10-05T23:49:05.387Z,21.27
2022-10-05T23:51:05.365Z,21.25
2022-10-05T23:54:05.400Z,21.23
2022-10-05T23:57:05.356Z,21.23
